Time;durP1;ratioP1;P1;durP2;ratioP2;P2;SDS_P1;SDS_P2;PMS_P1;PMS_P2;Temp;Humidity;BMP_temperature;BMP_pressure;BME280_temperature;BME280_humidity;BME280_pressure;Samples;Min_cycle;Max_cycle;Signal;HPM_P1;HPM_P2
2023/09/11 00:01:33;;;;;;;16.17;14.67;;;;;;;22.60;63.71;96255.34;4968482;28;20269;-70
2023/09/11 00:03:59;;;;;;;16.33;14.83;;;;;;;22.78;63.47;96269.66;4967665;28;20244;-70
2023/09/11 00:06:25;;;;;;;19.40;17.60;;;;;;;22.85;63.13;96264.56;4968491;28;20209;-70
2023/09/11 00:08:51;;;;;;;20.47;14.10;;;;;;;22.90;62.65;96267.66;4968823;28;20180;-70
2023/09/11 00:11:16;;;;;;;15.53;14.13;;;;;;;22.97;62.35;96263.38;4968609;28;20523;-70
2023/09/11 00:13:42;;;;;;;15.73;14.00;;;;;;;22.99;62.30;96272.16;4968022;28;20416;-70
2023/09/11 00:16:08;;;;;;;15.97;14.47;;;;;;;23.01;62.01;96261.31;4968144;28;20621;-70
2023/09/11 00:18:33;;;;;;;15.70;14.30;;;;;;;22.90;62.00;96256.94;4967981;28;20356;-71
2023/09/11 00:20:58;;;;;;;16.50;14.90;;;;;;;22.90;62.29;96250.75;4968662;28;20177;-72
2023/09/11 00:23:24;;;;;;;15.20;13.80;;;;;;;22.96;61.98;96251.00;4967894;28;20683;-72
2023/09/11 00:25:49;;;;;;;15.37;13.60;;;;;;;22.96;61.91;96247.47;4968073;28;20640;-71
2023/09/11 00:28:15;;;;;;;16.10;14.73;;;;;;;22.82;62.32;96249.66;4967215;28;20235;-70
2023/09/11 00:30:40;;;;;;;17.60;14.30;;;;;;;22.79;62.37;96244.56;4978435;28;20232;-72
2023/09/11 00:33:05;;;;;;;14.90;13.50;;;;;;;22.74;62.19;96241.50;4985009;28;20181;-71
2023/09/11 00:35:31;;;;;;;20.50;15.37;;;;;;;22.69;62.50;96243.78;4985175;28;20174;-71
2023/09/11 00:37:56;;;;;;;16.50;15.00;;;;;;;22.71;62.33;96241.81;4983759;28;20284;-72
2023/09/11 00:40:22;;;;;;;14.90;13.33;;;;;;;22.71;62.31;96244.47;4969347;28;20180;-71
2023/09/11 00:42:47;;;;;;;16.33;14.73;;;;;;;22.75;62.01;96242.38;4968524;28;20280;-70
2023/09/11 00:45:13;;;;;;;16.77;15.30;;;;;;;22.63;62.53;96244.38;4969229;28;20181;-72
2023/09/11 00:47:44;;;;;;;20.20;14.63;;;;;;;22.61;62.63;96241.84;4969192;28;20189;-72
2023/09/11 00:50:10;;;;;;;14.93;13.10;;;;;;;22.58;62.61;96246.63;4969340;28;20177;-72
2023/09/11 00:52:36;;;;;;;13.97;12.67;;;;;;;22.59;62.53;96235.78;4970157;28;20465;-71
2023/09/11 00:55:03;;;;;;;14.90;13.50;;;;;;;22.61;62.70;96231.16;4969637;28;20901;-71
2023/09/11 00:57:29;;;;;;;14.73;13.33;;;;;;;22.55;62.77;96233.56;4969787;28;20494;-72
2023/09/11 00:59:54;;;;;;;15.53;14.00;;;;;;;22.52;62.87;96229.34;4974528;28;20397;-71
2023/09/11 01:02:21;;;;;;;14.77;13.27;;;;;;;22.47;62.86;96228.09;4979710;28;20654;-72
2023/09/11 01:04:48;;;;;;;15.73;14.33;;;;;;;22.41;63.20;96230.34;4969509;28;20177;-71
2023/09/11 01:07:14;;;;;;;15.90;14.37;;;;;;;22.43;63.00;96232.03;4969275;28;20532;-72
2023/09/11 01:09:40;;;;;;;17.53;14.73;;;;;;;22.39;63.28;96228.81;4973369;28;20515;-70
2023/09/11 01:12:06;;;;;;;17.50;13.90;;;;;;;22.38;63.54;96232.47;4968348;28;20169;-71
2023/09/11 01:14:33;;;;;;;16.30;14.70;;;;;;;22.40;63.09;96233.19;4967990;28;20427;-72
2023/09/11 01:17:36;;;;;;;16.63;15.13;;;;;;;22.32;63.40;96231.25;4968658;28;20509;-72
2023/09/11 01:20:19;;;;;;;16.70;14.30;;;;;;;22.37;63.36;96238.78;4946685;29;20417;-71
2023/09/11 01:23:02;;;;;;;15.27;14.00;;;;;;;22.38;63.20;96229.81;4966414;28;20872;-70
2023/09/11 01:25:43;;;;;;;14.40;13.10;;;;;;;22.34;63.31;96239.94;4966888;28;20409;-70
2023/09/11 01:28:33;;;;;;;15.73;14.20;;;;;;;22.29;63.57;96228.00;4968771;28;20412;-70
2023/09/11 01:30:59;;;;;;;15.83;14.33;;;;;;;22.26;63.69;96228.28;4968789;28;20910;-70
2023/09/11 01:33:24;;;;;;;17.90;14.87;;;;;;;22.15;64.08;96229.25;4967990;28;20416;-70
2023/09/11 01:35:51;;;;;;;16.17;14.57;;;;;;;22.19;63.97;96225.31;4968320;28;20190;-70
2023/09/11 01:38:17;;;;;;;15.70;14.27;;;;;;;22.08;64.23;96223.63;4969638;28;20248;-70
2023/09/11 01:40:47;;;;;;;16.80;15.20;;;;;;;22.06;64.25;96222.91;4972423;28;20570;-70
2023/09/11 01:43:14;;;;;;;16.27;14.60;;;;;;;22.05;64.31;96215.91;4971640;28;20223;-71
2023/09/11 01:45:41;;;;;;;16.10;14.50;;;;;;;21.97;64.61;96221.13;4972079;28;20419;-71
2023/09/11 01:48:08;;;;;;;18.00;15.23;;;;;;;21.85;65.09;96225.78;4972224;28;20471;-70
2023/09/11 01:50:36;;;;;;;15.60;14.03;;;;;;;21.84;65.08;96221.41;4971588;28;20409;-71
2023/09/11 01:53:04;;;;;;;17.90;16.30;;;;;;;21.85;64.99;96224.91;4971077;28;20500;-70
2023/09/11 01:55:32;;;;;;;16.97;15.27;;;;;;;21.87;64.88;96223.78;4971162;28;20413;-70
2023/09/11 01:57:57;;;;;;;16.27;14.87;;;;;;;21.80;64.85;96213.81;4970725;28;20464;-69
2023/09/11 02:00:23;;;;;;;16.97;15.47;;;;;;;21.82;64.91;96214.53;4971047;28;21630;-70
2023/09/11 02:02:51;;;;;;;16.97;15.23;;;;;;;21.73;65.19;96214.41;4970625;28;20236;-71
2023/09/11 02:05:17;;;;;;;17.60;16.03;;;;;;;21.75;65.37;96212.41;4970844;28;20197;-70
2023/09/11 02:07:43;;;;;;;18.70;16.70;;;;;;;21.71;65.33;96215.53;4970393;28;20964;-70
2023/09/11 02:10:09;;;;;;;19.00;17.17;;;;;;;21.70;65.30;96209.31;4970633;28;20448;-69
2023/09/11 02:12:34;;;;;;;18.20;16.53;;;;;;;21.61;65.68;96212.81;4970128;28;20249;-70
2023/09/11 02:14:59;;;;;;;17.53;15.73;;;;;;;21.63;65.80;96207.34;4969852;28;20524;-71
2023/09/11 02:17:25;;;;;;;16.13;14.73;;;;;;;21.54;66.14;96209.03;4970129;28;20201;-71
2023/09/11 02:19:50;;;;;;;17.00;15.50;;;;;;;21.48;65.86;96215.78;4970029;28;20327;-70
2023/09/11 02:22:16;;;;;;;16.93;15.40;;;;;;;21.42;66.20;96202.97;4969973;28;20170;-72
2023/09/11 02:24:41;;;;;;;17.50;15.90;;;;;;;21.43;66.09;96202.00;4969889;28;20864;-71
2023/09/11 02:27:07;;;;;;;18.77;16.53;;;;;;;21.46;65.89;96206.22;4969745;28;20201;-70
2023/09/11 02:29:32;;;;;;;19.03;15.10;;;;;;;21.27;66.36;96207.84;4969987;28;20197;-70
2023/09/11 02:31:58;;;;;;;18.40;16.50;;;;;;;21.35;66.23;96202.69;4970045;28;20758;-70
2023/09/11 02:34:23;;;;;;;17.20;15.73;;;;;;;21.33;65.94;96206.44;4969310;28;20189;-70
2023/09/11 02:36:48;;;;;;;16.13;14.63;;;;;;;21.44;65.51;96203.69;4969704;28;20194;-71
2023/09/11 02:39:14;;;;;;;17.23;15.57;;;;;;;21.42;65.55;96202.13;4969730;28;20253;-71
2023/09/11 02:41:39;;;;;;;16.17;14.50;;;;;;;21.40;65.15;96198.75;4969770;28;20174;-71
2023/09/11 02:44:05;;;;;;;15.30;14.10;;;;;;;21.30;65.80;96207.56;4969156;28;20189;-70
2023/09/11 02:46:30;;;;;;;18.60;16.20;;;;;;;21.26;65.70;96208.84;4969662;28;20185;-70
2023/09/11 02:48:56;;;;;;;17.17;15.53;;;;;;;21.19;66.09;96204.19;4969486;28;20173;-71
2023/09/11 02:51:21;;;;;;;18.37;15.10;;;;;;;21.21;65.68;96200.38;4968584;28;20181;-72
2023/09/11 02:53:46;;;;;;;16.33;14.73;;;;;;;21.18;65.85;96200.66;4968996;28;20671;-70
2023/09/11 02:56:12;;;;;;;17.10;15.47;;;;;;;21.19;66.06;96202.38;4969419;28;20193;-72
2023/09/11 02:58:37;;;;;;;17.00;15.50;;;;;;;21.07;65.96;96201.66;4969096;28;20173;-69
2023/09/11 03:01:04;;;;;;;17.83;16.13;;;;;;;21.07;66.23;96203.44;4969118;28;20248;-69
2023/09/11 03:03:30;;;;;;;16.83;15.10;;;;;;;21.08;66.13;96202.47;4969010;28;20219;-70
2023/09/11 03:06:00;;;;;;;16.87;15.57;;;;;;;20.97;66.35;96199.94;4969040;28;20397;-71
2023/09/11 03:08:26;;;;;;;19.43;14.80;;;;;;;20.97;66.28;96200.75;4969071;28;20467;-71
2023/09/11 03:10:52;;;;;;;16.10;14.53;;;;;;;20.97;65.94;96205.25;4968977;28;20444;-70
2023/09/11 03:13:18;;;;;;;15.83;14.23;;;;;;;20.89;66.28;96209.44;4968813;28;20596;-70
2023/09/11 03:15:43;;;;;;;16.10;14.70;;;;;;;20.94;66.21;96201.03;4968841;28;20188;-71
2023/09/11 03:18:09;;;;;;;16.77;14.87;;;;;;;20.84;66.26;96200.19;4969334;28;20180;-70
2023/09/11 03:20:34;;;;;;;16.80;15.23;;;;;;;20.87;66.47;96198.06;4969341;28;20227;-70
2023/09/11 03:23:00;;;;;;;16.63;14.87;;;;;;;20.90;66.45;96202.28;4968840;28;20308;-69
2023/09/11 03:25:26;;;;;;;15.67;13.90;;;;;;;20.81;66.31;96203.09;4969048;28;20482;-69
2023/09/11 03:27:52;;;;;;;16.67;14.87;;;;;;;20.83;66.71;96195.81;4969092;28;20186;-70
2023/09/11 03:30:17;;;;;;;17.13;15.63;;;;;;;20.80;66.71;96190.75;4969106;28;20411;-70
2023/09/11 03:32:43;;;;;;;17.10;15.50;;;;;;;20.76;66.78;96200.84;4969181;28;20685;-69
2023/09/11 03:35:08;;;;;;;16.50;14.83;;;;;;;20.78;66.57;96206.88;4964898;28;20540;-70
2023/09/11 03:37:34;;;;;;;19.83;15.50;;;;;;;20.73;67.16;96193.94;4963448;28;20241;-71
2023/09/11 03:39:59;;;;;;;17.30;15.60;;;;;;;20.70;67.31;96204.06;4964153;28;20716;-70
2023/09/11 03:42:24;;;;;;;17.87;15.73;;;;;;;20.71;66.91;96200.41;4968200;28;20202;-70
2023/09/11 03:44:50;;;;;;;16.80;14.87;;;;;;;20.67;67.27;96198.97;4966787;28;20173;-70
2023/09/11 03:47:15;;;;;;;16.37;14.97;;;;;;;20.61;67.35;96194.19;4968540;28;20190;-70
2023/09/11 03:49:40;;;;;;;17.70;15.43;;;;;;;20.57;67.57;96190.09;4968229;28;20173;-69
2023/09/11 03:52:06;;;;;;;16.90;15.40;;;;;;;20.52;67.68;96196.63;4968443;28;20181;-69
2023/09/11 03:54:31;;;;;;;17.50;15.90;;;;;;;20.53;67.67;96192.19;4968034;28;20468;-71
2023/09/11 03:56:57;;;;;;;19.40;17.50;;;;;;;20.62;67.28;96196.75;4968165;28;20193;-69
2023/09/11 03:59:22;;;;;;;17.50;15.80;;;;;;;20.60;67.28;96197.81;4968208;28;20363;-71
2023/09/11 04:01:47;;;;;;;19.07;17.10;;;;;;;20.48;67.46;96195.25;4968188;28;20169;-70
2023/09/11 04:04:13;;;;;;;18.53;16.70;;;;;;;20.51;67.53;96192.28;4965622;28;20737;-71
2023/09/11 04:06:38;;;;;;;19.07;17.17;;;;;;;20.52;67.36;96188.63;4965755;28;20565;-71
2023/09/11 04:09:05;;;;;;;18.97;16.87;;;;;;;20.44;67.56;96185.81;4965630;28;20177;-72
2023/09/11 04:11:31;;;;;;;19.63;17.73;;;;;;;20.48;67.38;96184.56;4965616;28;20181;-70
2023/09/11 04:13:56;;;;;;;19.07;17.17;;;;;;;20.48;67.51;96189.03;4965474;28;20965;-71
2023/09/11 04:16:22;;;;;;;18.33;16.57;;;;;;;20.49;67.20;96180.91;4965580;28;20448;-70
2023/09/11 04:18:47;;;;;;;18.17;16.07;;;;;;;20.45;67.36;96189.31;4963503;28;20537;-71
2023/09/11 04:21:12;;;;;;;18.80;16.93;;;;;;;20.43;67.38;96194.81;4966979;28;20734;-71
2023/09/11 04:23:38;;;;;;;20.50;15.73;;;;;;;20.37;67.58;96194.47;4966483;28;20197;-72
2023/09/11 04:26:03;;;;;;;18.57;16.77;;;;;;;20.28;67.55;96188.13;4966673;28;20193;-71
2023/09/11 04:28:29;;;;;;;19.47;17.63;;;;;;;20.21;67.95;96186.97;4967014;28;20271;-71
2023/09/11 04:30:54;;;;;;;50.03;20.53;;;;;;;20.25;67.77;96191.06;4966426;28;20186;-71
2023/09/11 04:33:20;;;;;;;18.63;16.93;;;;;;;20.15;68.05;96185.69;4966014;28;20568;-70
2023/09/11 04:35:45;;;;;;;19.33;17.40;;;;;;;20.11;68.13;96189.56;4965958;28;20170;-71
2023/09/11 04:38:12;;;;;;;17.60;15.80;;;;;;;20.14;68.23;96185.78;4965787;28;20166;-70
2023/09/11 04:40:38;;;;;;;18.53;16.50;;;;;;;20.17;68.20;96182.88;4965374;28;20560;-70
2023/09/11 04:43:04;;;;;;;19.60;17.50;;;;;;;20.02;68.34;96179.69;4965138;28;20480;-72
2023/09/11 04:45:29;;;;;;;21.37;17.40;;;;;;;20.16;67.99;96183.84;4965205;28;20502;-70
2023/09/11 04:47:55;;;;;;;18.37;16.47;;;;;;;19.86;68.82;96188.97;4965354;28;20185;-70
2023/09/11 04:50:20;;;;;;;28.17;18.50;;;;;;;19.88;68.82;96180.88;4965059;28;20185;-69
2023/09/11 04:52:45;;;;;;;23.90;17.53;;;;;;;19.79;69.17;96182.47;4960185;28;20253;-70
2023/09/11 04:55:11;;;;;;;22.33;18.47;;;;;;;19.91;68.62;96188.59;4968455;28;20265;-70
2023/09/11 04:57:36;;;;;;;20.20;18.07;;;;;;;19.72;69.18;96186.63;4959318;28;20283;-70
2023/09/11 05:00:09;;;;;;;24.77;17.33;;;;;;;19.93;68.50;96181.31;4965521;28;20252;-70
2023/09/11 05:02:34;;;;;;;26.00;17.97;;;;;;;20.09;67.88;96188.84;4963630;28;20324;-71
2023/09/11 05:04:59;;;;;;;26.40;19.23;;;;;;;20.13;67.49;96190.28;4964497;28;20515;-70
2023/09/11 05:07:25;;;;;;;28.33;18.50;;;;;;;20.08;67.52;96188.00;4965661;28;20225;-70
2023/09/11 05:09:50;;;;;;;25.83;17.93;;;;;;;20.16;66.87;96190.00;4966286;28;20173;-69
2023/09/11 05:12:16;;;;;;;22.43;17.23;;;;;;;20.10;67.34;96201.19;4965248;28;20256;-72
2023/09/11 05:14:41;;;;;;;18.33;16.40;;;;;;;20.09;67.17;96199.50;4968219;28;20181;-70
2023/09/11 05:17:07;;;;;;;18.03;16.40;;;;;;;20.03;67.49;96205.34;4968890;28;20186;-70
2023/09/11 05:19:32;;;;;;;20.17;16.73;;;;;;;20.06;67.23;96194.44;4969003;28;20280;-70
2023/09/11 05:21:58;;;;;;;19.00;17.20;;;;;;;20.06;67.13;96195.28;4970165;28;20178;-71
2023/09/11 05:24:24;;;;;;;19.27;17.00;;;;;;;20.11;67.42;96194.06;4968466;28;20504;-71
2023/09/11 05:26:49;;;;;;;18.70;16.80;;;;;;;20.20;67.03;96195.94;4969123;28;20437;-70
2023/09/11 05:29:14;;;;;;;22.80;16.33;;;;;;;20.19;66.77;96194.25;4968658;28;20684;-71
2023/09/11 05:31:40;;;;;;;20.33;17.03;;;;;;;20.19;66.91;96196.91;4968774;28;20180;-70
2023/09/11 05:34:05;;;;;;;17.73;15.27;;;;;;;20.27;66.58;96197.09;4968073;28;20330;-70
2023/09/11 05:36:31;;;;;;;17.30;15.60;;;;;;;20.56;65.60;96199.94;4968978;28;20197;-71
2023/09/11 05:38:56;;;;;;;18.60;16.77;;;;;;;20.93;64.21;96199.38;4971123;28;20181;-69
2023/09/11 05:41:22;;;;;;;17.20;15.37;;;;;;;21.79;61.28;96196.94;4970529;28;20628;-71
2023/09/11 05:43:47;;;;;;;17.93;16.13;;;;;;;22.51;58.55;96200.94;4970285;28;20197;-70
2023/09/11 05:46:13;;;;;;;19.07;16.40;;;;;;;23.40;55.98;96204.84;4970626;28;20293;-71
2023/09/11 05:48:38;;;;;;;17.47;15.87;;;;;;;23.35;55.55;96199.94;4970706;28;20192;-70
2023/09/11 05:51:04;;;;;;;16.73;15.03;;;;;;;23.83;53.68;96196.06;4970809;28;20173;-71
2023/09/11 05:53:29;;;;;;;16.90;15.40;;;;;;;24.34;52.44;96193.63;4970736;28;20624;-71
2023/09/11 05:55:55;;;;;;;17.20;15.40;;;;;;;24.99;50.85;96200.34;4970647;28;20173;-68
2023/09/11 05:58:20;;;;;;;21.20;15.43;;;;;;;25.10;50.21;96195.53;4970687;28;20169;-69
2023/09/11 06:00:46;;;;;;;16.30;14.10;;;;;;;25.29;49.92;96204.34;4970119;28;20177;-70
2023/09/11 06:03:11;;;;;;;20.03;16.23;;;;;;;25.71;48.92;96200.75;4970048;28;20196;-70
2023/09/11 06:05:39;;;;;;;19.90;15.73;;;;;;;25.80;48.84;96207.81;4970295;28;20181;-70
2023/09/11 06:08:05;;;;;;;16.80;14.53;;;;;;;26.40;47.27;96191.31;4968944;28;20181;-70
2023/09/11 06:10:30;;;;;;;18.33;15.90;;;;;;;26.52;46.60;96191.81;4970360;28;20419;-71
2023/09/11 06:12:56;;;;;;;15.73;14.07;;;;;;;26.74;46.04;96200.19;4970024;28;20177;-70
2023/09/11 06:15:21;;;;;;;19.77;17.10;;;;;;;26.74;45.66;96187.59;4970045;28;20181;-70
2023/09/11 06:17:46;;;;;;;19.90;15.57;;;;;;;27.07;45.22;96192.00;4969513;28;20193;-71
2023/09/11 06:20:15;;;;;;;20.10;16.27;;;;;;;27.24;44.53;96196.34;4973577;28;20587;-70
2023/09/11 06:22:40;;;;;;;20.33;18.40;;;;;;;27.35;44.94;96197.78;4967491;28;20287;-70
2023/09/11 06:25:07;;;;;;;17.60;15.80;;;;;;;26.68;45.89;96200.91;4968405;28;20492;-69
2023/09/11 06:27:34;;;;;;;16.80;15.10;;;;;;;26.72;46.15;96192.31;4969458;28;20271;-71
2023/09/11 06:29:59;;;;;;;18.30;16.40;;;;;;;26.59;46.67;96187.44;4969943;28;20413;-70
2023/09/11 06:32:24;;;;;;;20.73;15.77;;;;;;;26.33;47.27;96190.31;4969688;28;20964;-70
2023/09/11 06:34:50;;;;;;;17.83;13.73;;;;;;;26.51;47.00;96194.69;4970672;28;20184;-71
2023/09/11 06:37:15;;;;;;;17.37;15.77;;;;;;;26.82;46.26;96195.63;4974533;28;20680;-70
2023/09/11 06:39:41;;;;;;;15.17;13.60;;;;;;;26.79;46.33;96193.28;4977446;28;20235;-72
2023/09/11 06:42:06;;;;;;;18.40;16.60;;;;;;;26.70;46.71;96198.88;4968163;28;20193;-71
2023/09/11 06:44:32;;;;;;;18.13;16.23;;;;;;;26.64;46.91;96195.00;4968983;28;20221;-70
2023/09/11 06:46:57;;;;;;;18.90;16.60;;;;;;;26.80;46.49;96199.50;4971004;28;20216;-71
2023/09/11 06:49:32;;;;;;;17.53;15.70;;;;;;;26.90;46.60;96196.59;4969308;28;20181;-70
2023/09/11 06:51:57;;;;;;;18.57;16.87;;;;;;;26.98;46.18;96189.34;4972123;28;20741;-69
2023/09/11 06:54:23;;;;;;;19.03;15.60;;;;;;;27.04;46.40;96195.88;4973198;28;20614;-71
2023/09/11 06:56:48;;;;;;;19.30;16.93;;;;;;;27.21;45.84;96199.34;4967906;28;20201;-70
2023/09/11 06:59:13;;;;;;;17.43;15.83;;;;;;;27.11;46.40;96194.16;4974734;28;20247;-70
2023/09/11 07:01:40;;;;;;;16.87;15.27;;;;;;;27.31;45.93;96196.44;4968061;28;20223;-71
2023/09/11 07:04:10;;;;;;;16.93;14.90;;;;;;;27.30;45.79;96190.22;4972434;28;20295;-70
2023/09/11 07:06:36;;;;;;;20.87;15.60;;;;;;;27.45;45.58;96201.09;4969493;28;20531;-70
2023/09/11 07:09:04;;;;;;;16.40;14.67;;;;;;;27.63;45.48;96190.03;4969261;28;20500;-70
2023/09/11 07:11:29;;;;;;;16.20;14.70;;;;;;;27.88;45.07;96187.22;4967355;28;20260;-71
2023/09/11 07:13:54;;;;;;;16.50;14.70;;;;;;;28.01;44.52;96180.16;4974682;28;20539;-69
2023/09/11 07:16:20;;;;;;;18.13;14.73;;;;;;;28.16;44.16;96180.22;4967769;28;20693;-71
2023/09/11 07:18:46;;;;;;;16.10;14.47;;;;;;;28.29;44.01;96184.97;4968967;28;20705;-71
2023/09/11 07:21:11;;;;;;;15.47;14.03;;;;;;;28.66;43.08;96177.88;4968155;28;20495;-71
2023/09/11 07:23:37;;;;;;;19.93;13.67;;;;;;;28.59;43.57;96187.75;4974176;28;20637;-69
2023/09/11 07:26:02;;;;;;;20.93;14.83;;;;;;;28.81;42.53;96189.53;4974443;28;20205;-71
2023/09/11 07:28:27;;;;;;;18.30;15.47;;;;;;;29.02;42.43;96186.06;4967842;28;20185;-68
2023/09/11 07:30:53;;;;;;;18.37;16.73;;;;;;;29.25;42.40;96191.38;4968696;28;20994;-69
2023/09/11 07:33:19;;;;;;;13.67;12.57;;;;;;;29.32;42.01;96188.75;4968907;28;20208;-71
2023/09/11 07:35:45;;;;;;;16.53;14.90;;;;;;;29.27;41.84;96191.16;4967483;28;20420;-71
2023/09/11 07:38:11;;;;;;;14.70;13.40;;;;;;;29.39;41.67;96186.13;4971540;28;20188;-70
2023/09/11 07:40:37;;;;;;;20.63;15.03;;;;;;;29.47;41.68;96183.31;4969220;28;20188;-70
2023/09/11 07:43:03;;;;;;;16.03;14.40;;;;;;;29.40;42.08;96190.50;4979178;28;20205;-70
2023/09/11 07:45:28;;;;;;;24.67;13.30;;;;;;;29.62;41.25;96178.69;4980980;28;20446;-72
2023/09/11 07:47:54;;;;;;;14.70;13.20;;;;;;;29.59;41.62;96184.47;4981741;28;20197;-71
2023/09/11 07:50:19;;;;;;;15.80;14.33;;;;;;;29.77;41.27;96177.84;4972097;28;20249;-70
2023/09/11 07:52:45;;;;;;;15.80;14.00;;;;;;;29.75;41.23;96178.03;4967111;28;20444;-69
2023/09/11 07:55:10;;;;;;;15.53;13.67;;;;;;;29.87;40.84;96179.19;4966984;28;20177;-70
2023/09/11 07:57:39;;;;;;;15.57;13.60;;;;;;;29.83;41.02;96179.75;4968237;28;20275;-69
2023/09/11 08:00:08;;;;;;;14.70;13.30;;;;;;;30.02;40.51;96176.41;4968232;28;20181;-69
2023/09/11 08:02:34;;;;;;;15.97;14.47;;;;;;;29.68;41.08;96175.25;4966879;28;20891;-70
2023/09/11 08:04:59;;;;;;;15.63;13.03;;;;;;;29.81;41.44;96174.53;4968492;28;20798;-69
2023/09/11 08:07:25;;;;;;;14.33;12.40;;;;;;;29.82;41.53;96173.53;4968418;28;20188;-69
2023/09/11 08:09:54;;;;;;;15.27;13.80;;;;;;;29.58;42.09;96172.00;4968608;28;20244;-68
2023/09/11 08:12:20;;;;;;;19.43;13.40;;;;;;;30.01;40.97;96172.03;4968372;28;20232;-69
2023/09/11 08:14:45;;;;;;;20.30;13.53;;;;;;;30.00;40.69;96174.91;4967859;28;20791;-69
2023/09/11 08:17:11;;;;;;;15.20;13.80;;;;;;;29.92;41.17;96175.91;4968409;28;20748;-67
2023/09/11 08:19:37;;;;;;;14.23;12.70;;;;;;;30.19;40.47;96182.41;4968316;28;20904;-68
2023/09/11 08:22:03;;;;;;;14.83;13.40;;;;;;;30.20;40.28;96173.22;4968677;28;20172;-68
2023/09/11 08:24:29;;;;;;;14.10;12.80;;;;;;;30.47;40.01;96177.00;4968492;28;20491;-67
2023/09/11 08:26:54;;;;;;;13.23;11.97;;;;;;;30.61;40.14;96177.94;4974062;28;20203;-69
2023/09/11 08:29:20;;;;;;;14.20;12.90;;;;;;;30.71;39.71;96169.44;4968550;28;20180;-68
2023/09/11 08:31:46;;;;;;;14.13;12.43;;;;;;;30.75;39.79;96176.13;4966983;28;20173;-68
2023/09/11 08:34:11;;;;;;;15.43;12.90;;;;;;;30.81;39.58;96175.34;4967914;28;20428;-68
2023/09/11 08:36:37;;;;;;;18.40;12.53;;;;;;;30.98;39.16;96179.44;4968163;28;20200;-68
2023/09/11 08:39:03;;;;;;;16.40;12.73;;;;;;;31.16;39.00;96176.19;4968013;28;20184;-67
2023/09/11 08:41:29;;;;;;;21.53;12.60;;;;;;;31.35;38.91;96171.88;4968303;28;20689;-68
2023/09/11 08:43:54;;;;;;;14.70;12.13;;;;;;;31.07;39.14;96179.28;4967823;28;20203;-67
2023/09/11 08:46:22;;;;;;;17.87;14.57;;;;;;;31.50;38.43;96170.91;4967612;28;20969;-69
2023/09/11 08:48:53;;;;;;;18.80;13.10;;;;;;;31.53;38.48;96176.75;4966988;28;20207;-69
2023/09/11 08:51:48;;;;;;;17.70;13.00;;;;;;;30.87;39.04;96177.28;4969002;28;20427;-68
2023/09/11 08:54:16;;;;;;;25.70;12.57;;;;;;;31.13;39.63;96168.44;4967106;28;20424;-68
2023/09/11 08:56:44;;;;;;;13.80;12.60;;;;;;;30.92;39.74;96174.84;4967210;28;20443;-69
2023/09/11 08:59:12;;;;;;;14.03;12.60;;;;;;;30.71;40.27;96172.16;4967775;28;20408;-69
2023/09/11 09:01:39;;;;;;;15.87;12.90;;;;;;;31.18;39.58;96176.84;4967487;28;20407;-69
2023/09/11 09:04:06;;;;;;;14.40;13.00;;;;;;;30.67;40.17;96165.47;4965560;28;20464;-68
2023/09/11 09:06:33;;;;;;;19.30;12.80;;;;;;;30.41;40.69;96180.50;4967480;28;20435;-68
2023/09/11 09:08:59;;;;;;;24.57;13.43;;;;;;;31.25;39.48;96170.59;4967602;28;20409;-69
2023/09/11 09:11:26;;;;;;;44.37;15.43;;;;;;;31.48;39.15;96173.00;4967239;28;20459;-69
2023/09/11 09:13:51;;;;;;;13.53;12.23;;;;;;;31.12;39.81;96172.19;4967229;28;20196;-69
2023/09/11 09:16:16;;;;;;;15.27;12.03;;;;;;;31.35;39.22;96166.47;4968548;28;20447;-69
2023/09/11 09:18:50;;;;;;;14.33;12.50;;;;;;;30.98;40.15;96165.88;4967685;28;20654;-68
2023/09/11 09:21:25;;;;;;;19.40;12.27;;;;;;;31.72;38.74;96161.56;4967348;28;20575;-68
2023/09/11 09:23:52;;;;;;;14.70;11.90;;;;;;;31.98;38.16;96158.09;4966982;28;20451;-67
2023/09/11 09:26:17;;;;;;;20.57;12.60;;;;;;;32.19;37.54;96154.34;4967357;28;20929;-69
2023/09/11 09:28:44;;;;;;;24.77;13.70;;;;;;;31.72;38.25;96156.13;4963140;28;20431;-69
2023/09/11 09:31:12;;;;;;;13.53;12.17;;;;;;;31.63;38.62;96155.53;4966755;28;20183;-69
2023/09/11 09:33:38;;;;;;;15.80;11.60;;;;;;;31.86;38.05;96157.81;4966357;28;20504;-68
2023/09/11 09:36:06;;;;;;;16.53;11.67;;;;;;;31.82;38.28;96156.59;4966424;28;20523;-68
2023/09/11 09:38:31;;;;;;;13.57;11.20;;;;;;;31.02;40.10;96150.06;4966824;28;20197;-68
2023/09/11 09:40:57;;;;;;;17.20;12.10;;;;;;;31.22;39.81;96148.25;4966780;28;20419;-68
2023/09/11 09:43:22;;;;;;;12.33;11.20;;;;;;;31.36;39.26;96143.72;4966854;28;20578;-68
2023/09/11 09:45:48;;;;;;;13.03;11.63;;;;;;;31.13;39.63;96148.63;4966190;28;20173;-67
2023/09/11 09:48:16;;;;;;;11.90;10.67;;;;;;;31.57;38.96;96142.75;4966934;28;20177;-68
2023/09/11 09:50:58;;;;;;;15.53;11.50;;;;;;;31.93;38.09;96141.56;4967259;28;20545;-68
2023/09/11 09:53:31;;;;;;;19.97;11.77;;;;;;;32.09;37.39;96132.22;4966647;28;20423;-67
2023/09/11 09:56:03;;;;;;;15.53;10.60;;;;;;;32.17;37.09;96133.88;4966656;28;20412;-68
2023/09/11 09:58:30;;;;;;;14.30;10.50;;;;;;;32.03;37.22;96130.31;4967137;28;20741;-68
2023/09/11 10:01:02;;;;;;;62.57;15.33;;;;;;;32.13;37.08;96119.91;4969508;28;20408;-68
2023/09/11 10:03:40;;;;;;;16.77;11.00;;;;;;;32.17;36.93;96118.41;4969623;28;20558;-69
2023/09/11 10:06:07;;;;;;;11.23;10.10;;;;;;;32.13;37.33;96110.88;4969724;28;20446;-68
2023/09/11 10:08:33;;;;;;;11.80;10.67;;;;;;;32.11;36.84;96110.28;4970025;28;20435;-68
2023/09/11 10:10:58;;;;;;;10.60;9.53;;;;;;;32.12;36.51;96107.34;4970122;28;20834;-67
2023/09/11 10:13:27;;;;;;;14.87;10.23;;;;;;;32.26;36.20;96100.03;4969237;28;20196;-69
2023/09/11 10:15:56;;;;;;;41.10;13.40;;;;;;;32.28;36.10;96101.47;4969568;28;20575;-68
2023/09/11 10:18:23;;;;;;;17.70;11.33;;;;;;;32.34;36.22;96101.69;4969420;28;20420;-69
2023/09/11 10:20:50;;;;;;;12.10;10.90;;;;;;;31.96;37.03;96100.47;4969860;28;20408;-69
2023/09/11 10:23:15;;;;;;;10.40;9.40;;;;;;;31.71;36.74;96089.38;4968867;28;20748;-69
2023/09/11 10:25:46;;;;;;;14.10;9.20;;;;;;;31.69;36.53;96093.34;4967947;28;20408;-69
2023/09/11 10:28:33;;;;;;;10.83;9.97;;;;;;;31.53;37.02;96097.28;4969302;28;20184;-70
2023/09/11 10:31:09;;;;;;;11.30;10.20;;;;;;;31.43;37.20;96090.38;4967213;28;20416;-69
2023/09/11 10:33:36;;;;;;;9.80;8.90;;;;;;;31.45;36.20;96083.91;4968976;28;20419;-69
2023/09/11 10:36:07;;;;;;;10.03;8.97;;;;;;;31.48;37.32;96087.03;4969273;28;20466;-68
2023/09/11 10:38:34;;;;;;;14.00;9.27;;;;;;;31.77;36.54;96074.97;4968891;28;20413;-69
2023/09/11 10:41:02;;;;;;;19.00;11.20;;;;;;;31.74;36.97;96075.38;4969385;28;20471;-68
2023/09/11 10:43:28;;;;;;;11.43;10.20;;;;;;;31.88;36.81;96078.09;4971889;28;20466;-68
2023/09/11 10:45:54;;;;;;;18.63;10.07;;;;;;;31.86;36.33;96089.16;4968833;28;20404;-69
2023/09/11 10:48:30;;;;;;;13.10;8.83;;;;;;;31.51;36.61;96081.19;4969149;28;20173;-70
2023/09/11 10:50:57;;;;;;;9.70;8.50;;;;;;;31.16;36.32;96075.03;4969072;28;20713;-69
2023/09/11 10:53:28;;;;;;;10.63;9.53;;;;;;;30.66;38.30;96069.81;4968033;28;20432;-68
2023/09/11 10:55:57;;;;;;;11.43;9.77;;;;;;;30.46;38.81;96079.72;4964095;28;21031;-69
2023/09/11 10:58:23;;;;;;;11.00;9.90;;;;;;;30.66;38.63;96079.81;4968471;28;20495;-69
2023/09/11 11:00:58;;;;;;;10.53;9.03;;;;;;;30.45;38.72;96072.63;4968773;28;20816;-69
2023/09/11 11:03:31;;;;;;;14.10;8.87;;;;;;;30.50;37.32;96072.88;4966720;28;20278;-69
2023/09/11 11:06:02;;;;;;;10.00;9.00;;;;;;;30.95;36.60;96062.50;4950663;28;20417;-69
2023/09/11 11:08:35;;;;;;;9.47;8.60;;;;;;;30.72;36.15;96060.91;4950138;28;20414;-69
2023/09/11 11:11:02;;;;;;;10.73;8.37;;;;;;;30.52;36.86;96073.50;4960943;28;20447;-69
2023/09/11 11:13:28;;;;;;;13.83;9.10;;;;;;;30.65;36.26;96070.88;4967730;28;20747;-69
2023/09/11 11:16:14;;;;;;;9.23;8.43;;;;;;;30.20;36.67;96074.97;4967960;28;20426;-68